createdAt,value
2022-09-09T00:05:20.112Z,15.37
2022-09-09T00:11:31.553Z,15.81
2022-09-09T00:17:52.249Z,15.12
2022-09-09T00:23:57.443Z,15.93
2022-09-09T00:30:05.508Z,15.72
2022-09-09T00:36:16.872Z,15.79
2022-09-09T00:42:24.625Z,15.74
2022-09-09T00:48:39.137Z,15.32
2022-09-09T00:54:49.987Z,15.76
2022-09-09T01:00:59.037Z,15.78
2022-09-09T01:07:18.943Z,14.75
2022-09-09T01:13:28.192Z,15.64
2022-09-09T01:19:45.147Z,15.45
2022-09-09T01:26:05.470Z,14.98
2022-09-09T01:32:43.508Z,15.01
2022-09-09T01:38:45.424Z,14.98
2022-09-09T01:44:47.294Z,15.04
2022-09-09T01:50:49.085Z,14.32
2022-09-09T01:57:24.315Z,15.03
2022-09-09T02:03:30.021Z,14.81
2022-09-09T02:09:31.827Z,15.29
2022-09-09T02:15:40.445Z,14.71
2022-09-09T02:21:45.217Z,15.16
2022-09-09T02:27:50.098Z,15.47
2022-09-09T02:34:03.471Z,14.95
2022-09-09T02:40:07.564Z,15.11
2022-09-09T02:46:25.126Z,14.61
2022-09-09T02:52:38.822Z,15.16
2022-09-09T02:58:41.331Z,14.89
2022-09-09T03:04:45.601Z,14.87
2022-09-09T03:10:47.355Z,14.26
2022-09-09T03:16:49.630Z,14.81
2022-09-09T03:22:51.795Z,14.30
2022-09-09T03:29:23.812Z,13.98
2022-09-09T03:35:31.663Z,14.62
2022-09-09T03:41:46.474Z,13.76
2022-09-09T03:47:57.518Z,14.18
2022-09-09T03:54:13.786Z,13.79
2022-09-09T04:00:16.467Z,14.14
2022-09-09T04:06:47.833Z,14.61
2022-09-09T04:12:56.567Z,14.02
2022-09-09T04:19:12.946Z,13.94
2022-09-09T04:25:21.214Z,14.39
2022-09-09T04:31:36.911Z,14.24
2022-09-09T04:37:38.867Z,14.21
2022-09-09T04:43:40.977Z,14.65
2022-09-09T04:49:42.724Z,14.96
2022-09-09T04:55:44.541Z,14.86
2022-09-09T05:01:46.842Z,15.33
2022-09-09T05:07:54.329Z,15.26
2022-09-09T05:13:56.130Z,15.08
2022-09-09T05:19:58.059Z,15.34
2022-09-09T05:25:59.870Z,15.51
2022-09-09T05:32:01.933Z,15.64
2022-09-09T05:52:57.557Z,15.75
2022-09-09T05:59:01.306Z,15.63
2022-09-09T06:05:03.028Z,15.40
2022-09-09T06:11:09.322Z,16.11
2022-09-09T06:17:11.480Z,15.87
2022-09-09T06:23:16.180Z,15.07
2022-09-09T06:29:17.966Z,15.75
2022-09-09T06:35:19.823Z,15.61
2022-09-09T06:41:23.604Z,15.95
2022-09-09T06:47:25.830Z,16.02
2022-09-09T06:53:28.536Z,16.32
2022-09-09T06:59:31.975Z,16.07
2022-09-09T07:05:33.721Z,16.40
2022-09-09T07:11:44.022Z,16.50
2022-09-09T07:17:46.132Z,16.61
2022-09-09T07:23:47.869Z,16.64
2022-09-09T07:29:49.846Z,17.11
2022-09-09T07:35:52.623Z,16.84
2022-09-09T07:41:55.786Z,16.97
2022-09-09T07:47:58.012Z,17.49
2022-09-09T07:54:10.406Z,17.39
2022-09-09T08:00:12.992Z,17.03
2022-09-09T08:06:15.029Z,16.79
2022-09-09T08:12:17.716Z,17.52
2022-09-09T08:18:19.475Z,17.22
2022-09-09T08:24:21.239Z,17.34
2022-09-09T08:30:23.025Z,17.59
2022-09-09T08:36:27.214Z,17.55
2022-09-09T08:42:49.729Z,17.63
2022-09-09T08:49:29.344Z,17.57
2022-09-09T09:02:17.077Z,17.25
2022-09-09T09:08:46.393Z,17.22
2022-09-09T09:14:51.844Z,17.63
2022-09-09T09:21:14.407Z,17.20
2022-09-09T09:27:32.265Z,17.68
2022-09-09T09:33:41.696Z,17.91
2022-09-09T09:46:17.153Z,18.51
2022-09-09T09:52:25.078Z,18.57
2022-09-09T09:58:47.541Z,18.30
2022-09-09T10:04:50.853Z,17.72
2022-09-09T10:11:28.225Z,18.63
2022-09-09T10:24:20.887Z,18.73
2022-09-09T10:30:36.523Z,18.01
2022-09-09T10:36:47.775Z,18.18
2022-09-09T10:42:49.607Z,19.33
2022-09-09T10:49:09.529Z,19.64
2022-09-09T10:55:46.324Z,19.65
2022-09-09T11:02:26.407Z,19.39
2022-09-09T11:08:31.048Z,18.77
2022-09-09T11:14:55.590Z,19.29
2022-09-09T11:21:04.838Z,18.77
2022-09-09T11:27:24.636Z,19.64
2022-09-09T11:34:00.617Z,19.79
2022-09-09T11:40:23.900Z,20.19
2022-09-09T11:46:36.642Z,19.94
2022-09-09T11:52:46.896Z,20.43
2022-09-09T11:59:03.204Z,20.46
2022-09-09T12:05:11.290Z,20.63
2022-09-09T12:11:24.631Z,20.87
2022-09-09T12:17:30.842Z,20.78
2022-09-09T12:30:16.251Z,21.93
2022-09-09T12:36:31.800Z,21.91
2022-09-09T12:42:58.109Z,21.94
2022-09-09T12:49:00.178Z,22.55
2022-09-09T12:55:04.920Z,22.59
2022-09-09T13:01:21.715Z,22.53
2022-09-09T13:07:29.736Z,21.97
2022-09-09T13:13:44.704Z,21.48
2022-09-09T13:19:47.523Z,21.95
2022-09-09T13:32:22.284Z,22.56
2022-09-09T13:38:27.646Z,22.82
2022-09-09T13:58:06.442Z,21.30
2022-09-09T14:29:45.536Z,21.58
2022-09-09T14:42:04.167Z,21.53
2022-09-09T14:48:06.104Z,21.54
2022-09-09T14:54:07.840Z,21.21
2022-09-09T15:00:11.670Z,21.05
2022-09-09T15:06:17.757Z,20.66
2022-09-09T15:12:20.166Z,20.92
2022-09-09T15:18:22.853Z,20.79
2022-09-09T15:24:24.616Z,20.85
2022-09-09T15:30:26.354Z,20.58
2022-09-09T15:36:49.804Z,21.29
2022-09-09T15:42:53.865Z,20.79
2022-09-09T15:49:11.621Z,20.52
2022-09-09T15:55:13.561Z,20.19
2022-09-09T16:01:16.614Z,20.49
2022-09-09T16:07:18.647Z,20.31
2022-09-09T16:13:20.577Z,19.68
2022-09-09T16:19:22.600Z,19.91
2022-09-09T16:25:24.372Z,20.56
2022-09-09T16:31:28.357Z,20.04
2022-09-09T16:37:30.552Z,19.92
2022-09-09T16:43:33.773Z,19.29
2022-09-09T16:49:35.617Z,19.36
2022-09-09T16:55:41.956Z,19.95
2022-09-09T17:01:45.955Z,20.07
2022-09-09T17:07:47.715Z,20.31
2022-09-09T17:13:49.427Z,19.82
2022-09-09T17:19:51.647Z,19.25
2022-09-09T17:26:01.173Z,19.60
2022-09-09T17:32:04.434Z,19.87
2022-09-09T17:38:06.800Z,18.83
2022-09-09T17:44:10.901Z,18.51
2022-09-09T17:50:13.890Z,19.24
2022-09-09T17:56:18.396Z,19.08
2022-09-09T18:02:20.405Z,19.88
2022-09-09T18:08:22.402Z,19.59
2022-09-09T18:14:31.256Z,19.12
2022-09-09T18:20:33.992Z,19.69
2022-09-09T18:26:38.906Z,19.25
2022-09-09T18:32:41.527Z,19.52
2022-09-09T18:38:43.975Z,19.12
2022-09-09T18:44:45.748Z,19.61
2022-09-09T18:50:47.638Z,19.13
2022-09-09T18:56:50.021Z,19.66
2022-09-09T19:02:53.066Z,19.12
2022-09-09T19:09:02.869Z,19.02
2022-09-09T19:15:05.795Z,19.07
2022-09-09T19:21:12.187Z,19.36
2022-09-09T19:27:14.041Z,18.22
2022-09-09T19:33:15.752Z,18.94
2022-09-09T19:39:18.470Z,18.84
2022-09-09T19:45:20.397Z,18.66
2022-09-09T19:51:23.457Z,18.85
2022-09-09T19:57:28.722Z,19.05
2022-09-09T20:03:30.623Z,18.74
2022-09-09T20:09:32.485Z,18.67
2022-09-09T20:15:34.371Z,18.39
2022-09-09T20:21:39.460Z,19.03
2022-09-09T20:27:48.723Z,18.33
2022-09-09T20:33:56.436Z,18.38
2022-09-09T20:39:58.767Z,18.59
2022-09-09T20:46:04.753Z,18.33
2022-09-09T20:52:07.121Z,18.81
2022-09-09T20:58:09.317Z,17.93
2022-09-09T21:04:11.175Z,18.65
2022-09-09T21:10:13.757Z,18.27
2022-09-09T21:16:21.491Z,18.31
2022-09-09T21:22:23.373Z,18.37
2022-09-09T21:28:28.541Z,18.26
2022-09-09T21:34:30.536Z,18.43
2022-09-09T21:40:32.424Z,18.86
2022-09-09T21:46:34.175Z,18.06
2022-09-09T21:52:36.963Z,18.35
2022-09-09T21:58:41.103Z,18.53
2022-09-09T22:04:43.545Z,18.09
2022-09-09T22:10:46.816Z,18.66
2022-09-09T22:16:48.529Z,18.19
2022-09-09T22:22:50.332Z,18.55
2022-09-09T22:28:54.063Z,17.64
2022-09-09T22:34:55.876Z,18.46
2022-09-09T22:40:58.367Z,18.44
2022-09-09T22:47:01.357Z,18.25
2022-09-09T22:53:04.462Z,18.64
2022-09-09T22:59:06.653Z,18.14
2022-09-09T23:05:08.961Z,18.10
2022-09-09T23:11:12.403Z,18.06
2022-09-09T23:17:18.821Z,17.99
2022-09-09T23:23:20.665Z,17.71
2022-09-09T23:29:22.446Z,17.93
2022-09-09T23:35:24.212Z,18.26
2022-09-09T23:41:27.224Z,17.80
2022-09-09T23:47:29.020Z,17.99
2022-09-09T23:53:31.341Z,18.43
2022-09-09T23:59:35.112Z,18.09
